EJU32KB LIMC-EGKK
Flight info
| Callsign | EJU32KB |
|---|---|
| Flight time | N/A |
| Altitude | 36000 |
| Route | AOSTA DCT ORSUD DCT MOLUS DCT GILIR DCT PENDU DCT IXILU DCT GIVOR DCT SORAL DCT IBERA DCT RITAX M624 BUB L608 DENUT L610 TEBRA |
| Aircraft | A320/M-SDE3FGHIRWY/LB1 |
Departure
| Time | 2026-05-05 21:46 |
|---|---|
| Airport | Milan Malpensa International Airport (LIMC) |
Arrival
| Time | N/A |
|---|---|
| Airport | London Gatwick Airport (EGKK) |
| Time | Latitude | Longitude | Altitude | Speed | Heading |
|---|---|---|---|---|---|
| 2026-05-05 20:34 | 45.64536 | 8.72410 | 739 ft | 0 kts | 349° |
| 2026-05-05 21:15 | 45.64528 | 8.72413 | 740 ft | 4 kts | 349° |
| 2026-05-05 21:15 | 45.64502 | 8.72420 | 740 ft | 4 kts | 349° |
| 2026-05-05 21:15 | 45.64480 | 8.72426 | 739 ft | 4 kts | 346° |
| 2026-05-05 21:15 | 45.64459 | 8.72442 | 737 ft | 4 kts | 296° |
| 2026-05-05 21:16 | 45.64454 | 8.72477 | 738 ft | 4 kts | 261° |
| 2026-05-05 21:16 | 45.64458 | 8.72510 | 739 ft | 2 kts | 259° |
| 2026-05-05 21:16 | 45.64459 | 8.72511 | 739 ft | 0 kts | 259° |
| 2026-05-05 21:18 | 45.64456 | 8.72490 | 737 ft | 4 kts | 259° |
| 2026-05-05 21:18 | 45.64422 | 8.72428 | 740 ft | 13 kts | 191° |
| 2026-05-05 21:19 | 45.64340 | 8.72448 | 740 ft | 11 kts | 168° |
| 2026-05-05 21:19 | 45.64268 | 8.72468 | 740 ft | 10 kts | 168° |
| 2026-05-05 21:19 | 45.64196 | 8.72489 | 741 ft | 13 kts | 168° |
| 2026-05-05 21:19 | 45.64111 | 8.72513 | 741 ft | 12 kts | 168° |
| 2026-05-05 21:20 | 45.64080 | 8.72522 | 741 ft | 0 kts | 168° |
| 2026-05-05 21:20 | 45.64060 | 8.72530 | 741 ft | 5 kts | 163° |
| 2026-05-05 21:20 | 45.64035 | 8.72541 | 739 ft | 0 kts | 164° |
| 2026-05-05 21:23 | 45.64022 | 8.72546 | 741 ft | 7 kts | 167° |
| 2026-05-05 21:23 | 45.63921 | 8.72575 | 740 ft | 21 kts | 168° |
| 2026-05-05 21:23 | 45.63772 | 8.72617 | 741 ft | 23 kts | 169° |
| 2026-05-05 21:24 | 45.63631 | 8.72655 | 741 ft | 12 kts | 169° |
| 2026-05-05 21:24 | 45.63573 | 8.72671 | 739 ft | 5 kts | 169° |
| 2026-05-05 21:24 | 45.63541 | 8.72680 | 741 ft | 0 kts | 169° |
| 2026-05-05 21:25 | 45.63500 | 8.72691 | 741 ft | 15 kts | 169° |
| 2026-05-05 21:26 | 45.63368 | 8.72728 | 741 ft | 21 kts | 169° |
| 2026-05-05 21:26 | 45.63215 | 8.72769 | 741 ft | 23 kts | 169° |
| 2026-05-05 21:26 | 45.63054 | 8.72813 | 741 ft | 25 kts | 168° |
| 2026-05-05 21:26 | 45.62885 | 8.72861 | 741 ft | 25 kts | 169° |
| 2026-05-05 21:27 | 45.62709 | 8.72909 | 739 ft | 26 kts | 169° |
| 2026-05-05 21:27 | 45.62526 | 8.72960 | 741 ft | 27 kts | 169° |
| 2026-05-05 21:27 | 45.62344 | 8.73008 | 741 ft | 27 kts | 169° |
| 2026-05-05 21:27 | 45.62162 | 8.73058 | 741 ft | 25 kts | 169° |
| 2026-05-05 21:28 | 45.61989 | 8.73106 | 740 ft | 26 kts | 169° |
| 2026-05-05 21:28 | 45.61830 | 8.73150 | 741 ft | 18 kts | 169° |
| 2026-05-05 21:28 | 45.61740 | 8.73210 | 741 ft | 8 kts | 132° |
| 2026-05-05 21:28 | 45.61709 | 8.73273 | 740 ft | 7 kts | 124° |
| 2026-05-05 21:29 | 45.61676 | 8.73343 | 741 ft | 10 kts | 124° |
| 2026-05-05 21:29 | 45.61641 | 8.73417 | 740 ft | 8 kts | 124° |
| 2026-05-05 21:29 | 45.61624 | 8.73453 | 741 ft | 0 kts | 124° |
| 2026-05-05 21:32 | 45.61610 | 8.73483 | 740 ft | 7 kts | 124° |
| 2026-05-05 21:33 | 45.61593 | 8.73525 | 741 ft | 0 kts | 114° |
| 2026-05-05 21:42 | 45.61585 | 8.73568 | 741 ft | 7 kts | 99° |
| 2026-05-05 21:42 | 45.61585 | 8.73609 | 741 ft | 0 kts | 86° |
| 2026-05-05 21:44 | 45.61585 | 8.73610 | 741 ft | 1 kts | 86° |
| 2026-05-05 21:44 | 45.61596 | 8.73689 | 739 ft | 13 kts | 68° |
| 2026-05-05 21:45 | 45.61660 | 8.73723 | 739 ft | 0 kts | 348° |
| 2026-05-05 21:45 | 45.61748 | 8.73700 | 739 ft | 43 kts | 349° |
| 2026-05-05 21:45 | 45.62291 | 8.73551 | 742 ft | 113 kts | 349° |
| 2026-05-05 21:46 | 45.63252 | 8.73282 | 759 ft | 163 kts | 349° |
| 2026-05-05 21:46 | 45.64332 | 8.72967 | 1437 ft | 160 kts | 348° |
| 2026-05-05 21:46 | 45.65438 | 8.72672 | 2107 ft | 166 kts | 352° |
| 2026-05-05 21:46 | 45.66658 | 8.72581 | 2451 ft | 187 kts | 2° |
| 2026-05-05 21:47 | 45.68042 | 8.72606 | 2781 ft | 212 kts | 1° |
| 2026-05-05 21:47 | 45.69598 | 8.72615 | 3220 ft | 232 kts | 1° |
| 2026-05-05 21:47 | 45.71238 | 8.72578 | 4001 ft | 239 kts | 353° |
| 2026-05-05 21:47 | 45.72750 | 8.71650 | 4824 ft | 242 kts | 315° |
| 2026-05-05 21:48 | 45.73547 | 8.69579 | 5651 ft | 241 kts | 276° |
| 2026-05-05 21:48 | 45.73431 | 8.67208 | 6526 ft | 240 kts | 254° |
| 2026-05-05 21:48 | 45.72938 | 8.64929 | 7396 ft | 240 kts | 249° |
| 2026-05-05 21:48 | 45.72358 | 8.62671 | 8244 ft | 243 kts | 248° |
| 2026-05-05 21:49 | 45.71746 | 8.60443 | 9117 ft | 244 kts | 240° |
| 2026-05-05 21:49 | 45.70782 | 8.58369 | 9688 ft | 261 kts | 232° |
| 2026-05-05 21:49 | 45.69708 | 8.56159 | 10171 ft | 279 kts | 235° |
| 2026-05-05 21:49 | 45.68601 | 8.53739 | 10471 ft | 303 kts | 236° |
| 2026-05-05 21:50 | 45.67428 | 8.51096 | 10727 ft | 327 kts | 237° |
| 2026-05-05 21:50 | 45.66180 | 8.48261 | 11082 ft | 344 kts | 237° |
| 2026-05-05 21:50 | 45.64894 | 8.45339 | 11738 ft | 350 kts | 237° |
| 2026-05-05 21:50 | 45.63589 | 8.42384 | 12499 ft | 353 kts | 237° |
| 2026-05-05 21:51 | 45.62159 | 8.39512 | 13260 ft | 356 kts | 230° |
| 2026-05-05 21:51 | 45.60603 | 8.36741 | 13995 ft | 359 kts | 235° |
| 2026-05-05 21:51 | 45.59445 | 8.33568 | 14680 ft | 363 kts | 248° |
| 2026-05-05 21:51 | 45.58848 | 8.30057 | 15372 ft | 368 kts | 262° |
| 2026-05-05 21:52 | 45.59484 | 8.22784 | 16727 ft | 380 kts | 283° |
| 2026-05-05 21:52 | 45.60270 | 8.19168 | 17399 ft | 384 kts | 284° |
| 2026-05-05 21:52 | 45.61114 | 8.15535 | 18054 ft | 387 kts | 284° |
| 2026-05-05 21:53 | 45.61991 | 8.11880 | 18638 ft | 391 kts | 284° |
| 2026-05-05 21:53 | 45.62881 | 8.08187 | 19190 ft | 394 kts | 284° |
| 2026-05-05 21:53 | 45.63768 | 8.04468 | 19754 ft | 397 kts | 284° |
| 2026-05-05 21:53 | 45.64649 | 8.00714 | 20311 ft | 399 kts | 284° |
| 2026-05-05 21:54 | 45.65521 | 7.96940 | 20828 ft | 401 kts | 283° |
| 2026-05-05 21:54 | 45.66390 | 7.93139 | 21294 ft | 404 kts | 283° |
| 2026-05-05 21:54 | 45.67263 | 7.89305 | 21768 ft | 407 kts | 283° |
| 2026-05-05 21:54 | 45.68143 | 7.85446 | 22266 ft | 410 kts | 282° |
| 2026-05-05 21:55 | 45.69031 | 7.81549 | 22745 ft | 414 kts | 283° |
| 2026-05-05 21:55 | 45.69913 | 7.77678 | 23213 ft | 416 kts | 283° |
| 2026-05-05 21:55 | 45.70814 | 7.73726 | 23639 ft | 420 kts | 283° |
| 2026-05-05 21:55 | 45.71719 | 7.69736 | 24025 ft | 423 kts | 283° |
| 2026-05-05 21:56 | 45.72630 | 7.65720 | 24408 ft | 425 kts | 283° |
| 2026-05-05 21:56 | 45.73547 | 7.61680 | 24733 ft | 428 kts | 283° |
| 2026-05-05 21:56 | 45.74468 | 7.57625 | 25065 ft | 429 kts | 283° |
| 2026-05-05 21:56 | 45.75390 | 7.53555 | 25466 ft | 431 kts | 283° |
| 2026-05-05 21:57 | 45.76311 | 7.49462 | 25843 ft | 432 kts | 283° |
| 2026-05-05 21:57 | 45.77232 | 7.45360 | 26207 ft | 434 kts | 283° |
| 2026-05-05 21:57 | 45.78196 | 7.41254 | 26569 ft | 438 kts | 287° |
| 2026-05-05 21:57 | 45.79561 | 7.37305 | 26903 ft | 447 kts | 296° |
| 2026-05-05 21:58 | 45.81404 | 7.33691 | 27132 ft | 455 kts | 307° |
| 2026-05-05 21:58 | 45.83702 | 7.30525 | 27378 ft | 463 kts | 316° |
| 2026-05-05 21:58 | 45.86292 | 7.27830 | 27599 ft | 467 kts | 320° |
| 2026-05-05 21:58 | 45.88949 | 7.25134 | 27847 ft | 470 kts | 319° |
| 2026-05-05 21:59 | 45.91620 | 7.22416 | 28146 ft | 472 kts | 319° |
| 2026-05-05 21:59 | 45.94301 | 7.19679 | 28417 ft | 473 kts | 319° |
| 2026-05-05 21:59 | 45.96985 | 7.16934 | 28606 ft | 475 kts | 319° |
| 2026-05-05 21:59 | 45.99676 | 7.14179 | 28782 ft | 476 kts | 320° |
| 2026-05-05 22:00 | 46.02380 | 7.11414 | 29097 ft | 476 kts | 320° |
| 2026-05-05 22:00 | 46.05075 | 7.08656 | 29386 ft | 475 kts | 319° |
| 2026-05-05 22:00 | 46.07765 | 7.05901 | 29720 ft | 474 kts | 319° |
| 2026-05-05 22:00 | 46.10449 | 7.03146 | 30036 ft | 474 kts | 319° |
| 2026-05-05 22:01 | 46.13135 | 7.00383 | 30308 ft | 473 kts | 319° |
| 2026-05-05 22:01 | 46.15771 | 6.97664 | 30578 ft | 471 kts | 318° |
| 2026-05-05 22:01 | 46.18423 | 6.94925 | 30905 ft | 468 kts | 318° |
| 2026-05-05 22:01 | 46.21064 | 6.92197 | 31212 ft | 466 kts | 318° |
| 2026-05-05 22:02 | 46.23697 | 6.89474 | 31491 ft | 465 kts | 318° |
| 2026-05-05 22:02 | 46.26330 | 6.86747 | 31785 ft | 465 kts | 318° |
| 2026-05-05 22:02 | 46.28958 | 6.84017 | 32073 ft | 466 kts | 318° |
| 2026-05-05 22:02 | 46.31588 | 6.81284 | 32393 ft | 465 kts | 319° |
| 2026-05-05 22:03 | 46.34211 | 6.78553 | 32702 ft | 463 kts | 319° |
| 2026-05-05 22:03 | 46.36827 | 6.75831 | 32976 ft | 463 kts | 319° |
| 2026-05-05 22:03 | 46.39439 | 6.73108 | 33235 ft | 463 kts | 319° |
| 2026-05-05 22:03 | 46.42056 | 6.70379 | 33490 ft | 463 kts | 319° |
| 2026-05-05 22:04 | 46.44744 | 6.67777 | 33754 ft | 467 kts | 326° |
| 2026-05-05 22:04 | 46.47657 | 6.65638 | 33999 ft | 470 kts | 329° |
| 2026-05-05 22:04 | 46.50564 | 6.63604 | 34220 ft | 470 kts | 329° |
| 2026-05-05 22:04 | 46.53509 | 6.61542 | 34460 ft | 470 kts | 329° |
| 2026-05-05 22:05 | 46.56452 | 6.59473 | 34704 ft | 470 kts | 329° |
| 2026-05-05 22:05 | 46.59394 | 6.57399 | 34939 ft | 470 kts | 329° |
| 2026-05-05 22:05 | 46.62330 | 6.55324 | 35158 ft | 469 kts | 329° |
| 2026-05-05 22:05 | 46.65266 | 6.53247 | 35379 ft | 469 kts | 329° |
| 2026-05-05 22:06 | 46.68204 | 6.51163 | 35588 ft | 469 kts | 329° |
| 2026-05-05 22:06 | 46.71133 | 6.49084 | 35820 ft | 469 kts | 330° |
| 2026-05-05 22:06 | 46.74069 | 6.46997 | 35914 ft | 469 kts | 330° |
| 2026-05-05 22:07 | 46.79939 | 6.42816 | 35935 ft | 470 kts | 330° |
| 2026-05-05 22:07 | 46.85820 | 6.38634 | 35932 ft | 470 kts | 330° |
| 2026-05-05 22:08 | 46.91699 | 6.34436 | 35931 ft | 470 kts | 330° |
| 2026-05-05 22:08 | 46.97528 | 6.30249 | 35925 ft | 470 kts | 330° |
| 2026-05-05 22:09 | 47.03404 | 6.26026 | 35935 ft | 470 kts | 330° |
| 2026-05-05 22:09 | 47.09279 | 6.21791 | 35922 ft | 471 kts | 330° |
| 2026-05-05 22:10 | 47.15168 | 6.17553 | 35927 ft | 471 kts | 331° |
| 2026-05-05 22:10 | 47.21012 | 6.13346 | 35924 ft | 471 kts | 330° |
| 2026-05-05 22:11 | 47.26894 | 6.09091 | 35924 ft | 471 kts | 330° |
| 2026-05-05 22:11 | 47.32855 | 6.05050 | 35916 ft | 474 kts | 339° |
| 2026-05-05 22:12 | 47.39362 | 6.03377 | 35906 ft | 479 kts | 358° |
| 2026-05-05 22:12 | 47.46032 | 6.03522 | 35905 ft | 480 kts | 359° |
| 2026-05-05 22:13 | 47.52708 | 6.03663 | 35902 ft | 480 kts | 359° |
| 2026-05-05 22:13 | 47.59338 | 6.03802 | 35897 ft | 480 kts | 359° |
| 2026-05-05 22:14 | 47.66011 | 6.03950 | 35899 ft | 480 kts | 359° |
| 2026-05-05 22:14 | 47.72684 | 6.04157 | 35898 ft | 480 kts | 3° |
| 2026-05-05 22:15 | 47.78141 | 6.05658 | 35896 ft | 481 kts | 13° |
| 2026-05-05 22:15 | 47.84630 | 6.08106 | 35890 ft | 481 kts | 13° |
| 2026-05-05 22:16 | 47.92170 | 6.10953 | 35887 ft | 481 kts | 13° |
| 2026-05-05 22:16 | 47.98661 | 6.13407 | 35880 ft | 481 kts | 13° |
| 2026-05-05 22:17 | 48.04053 | 6.15445 | 35877 ft | 481 kts | 13° |
| 2026-05-05 22:17 | 48.10538 | 6.17896 | 35881 ft | 480 kts | 13° |
| 2026-05-05 22:18 | 48.17013 | 6.20360 | 35879 ft | 480 kts | 14° |
| 2026-05-05 22:18 | 48.23480 | 6.22824 | 35877 ft | 479 kts | 14° |
| 2026-05-05 22:19 | 48.29943 | 6.25287 | 35883 ft | 479 kts | 14° |
| 2026-05-05 22:19 | 48.36344 | 6.27740 | 35885 ft | 478 kts | 14° |
| 2026-05-05 22:20 | 48.42777 | 6.30216 | 35879 ft | 477 kts | 14° |
| 2026-05-05 22:20 | 48.49198 | 6.32699 | 35873 ft | 476 kts | 14° |
| 2026-05-05 22:21 | 48.55615 | 6.35180 | 35857 ft | 476 kts | 14° |
| 2026-05-05 22:21 | 48.62022 | 6.37656 | 35854 ft | 475 kts | 14° |
| 2026-05-05 22:22 | 48.68469 | 6.39419 | 35851 ft | 474 kts | 3° |
| 2026-05-05 22:22 | 48.75053 | 6.40062 | 35848 ft | 474 kts | 3° |
| 2026-05-05 22:23 | 48.81635 | 6.40727 | 35847 ft | 474 kts | 3° |
| 2026-05-05 22:23 | 48.88212 | 6.41405 | 35845 ft | 474 kts | 3° |
| 2026-05-05 22:24 | 48.94793 | 6.42078 | 35851 ft | 474 kts | 4° |
| 2026-05-05 22:24 | 49.01371 | 6.42752 | 35848 ft | 474 kts | 4° |
| 2026-05-05 22:25 | 49.07908 | 6.43424 | 35849 ft | 474 kts | 2° |
| 2026-05-05 22:25 | 49.14435 | 6.42534 | 35841 ft | 471 kts | 345° |
| 2026-05-05 22:26 | 49.20765 | 6.39912 | 35837 ft | 471 kts | 344° |
| 2026-05-05 22:26 | 49.27096 | 6.37306 | 35831 ft | 471 kts | 344° |
| 2026-05-05 22:27 | 49.33440 | 6.34704 | 35829 ft | 471 kts | 344° |
| 2026-05-05 22:27 | 49.39775 | 6.32104 | 35824 ft | 471 kts | 344° |
| 2026-05-05 22:28 | 49.46065 | 6.29489 | 35819 ft | 471 kts | 344° |
| 2026-05-05 22:28 | 49.52269 | 6.26316 | 35827 ft | 469 kts | 333° |
| 2026-05-05 22:29 | 49.58044 | 6.21635 | 35819 ft | 469 kts | 331° |
| 2026-05-05 22:29 | 49.63810 | 6.16950 | 35818 ft | 469 kts | 332° |
| 2026-05-05 22:30 | 49.69573 | 6.12245 | 35817 ft | 468 kts | 331° |
| 2026-05-05 22:30 | 49.75326 | 6.07525 | 35822 ft | 468 kts | 331° |
| 2026-05-05 22:31 | 49.81044 | 6.02830 | 35825 ft | 468 kts | 331° |
| 2026-05-05 22:31 | 49.86796 | 5.98096 | 35825 ft | 468 kts | 331° |
| 2026-05-05 22:32 | 49.92550 | 5.93346 | 35833 ft | 468 kts | 331° |
| 2026-05-05 22:32 | 49.98299 | 5.88584 | 35840 ft | 468 kts | 332° |
| 2026-05-05 22:33 | 50.04049 | 5.83810 | 35836 ft | 468 kts | 331° |
| 2026-05-05 22:33 | 50.09440 | 5.78188 | 35826 ft | 467 kts | 316° |
| 2026-05-05 22:34 | 50.14084 | 5.71206 | 35828 ft | 467 kts | 315° |
| 2026-05-05 22:34 | 50.18758 | 5.64163 | 35828 ft | 467 kts | 315° |
| 2026-05-05 22:35 | 50.23435 | 5.57108 | 35837 ft | 468 kts | 315° |
| 2026-05-05 22:35 | 50.28103 | 5.50032 | 35850 ft | 468 kts | 315° |
| 2026-05-05 22:36 | 50.32770 | 5.42919 | 35836 ft | 469 kts | 314° |
| 2026-05-05 22:36 | 50.37440 | 5.35787 | 35832 ft | 469 kts | 314° |
| 2026-05-05 22:37 | 50.42118 | 5.28631 | 35838 ft | 470 kts | 314° |
| 2026-05-05 22:37 | 50.46795 | 5.21466 | 35840 ft | 470 kts | 314° |
| 2026-05-05 22:38 | 50.51439 | 5.14318 | 35848 ft | 470 kts | 314° |
| 2026-05-05 22:38 | 50.56103 | 5.07108 | 35858 ft | 471 kts | 314° |
| 2026-05-05 22:39 | 50.60769 | 4.99875 | 35866 ft | 471 kts | 314° |
| 2026-05-05 22:39 | 50.65431 | 4.92634 | 35864 ft | 471 kts | 314° |
| 2026-05-05 22:40 | 50.70098 | 4.85381 | 35873 ft | 471 kts | 314° |